Christmas, Michigan
Current Conditions -  °F | °C
As of 9:55 PM on Sunday 21 Dec 2014 (Local Time) from KISQ Reporting Station
Light Rain Light Rain  
Wind Chill: 24°   Ceiling: 900
Heat Index: 34°   Visibility: 5mi
Dew Point: 33°   Wind: 16mph
Humidity: 98%   Direction: 170°S
Pressure: 30.03"   Gusts: 21mph
Location:  46.4479°N, 86.4779°W
Report Text: KISQ 220255Z AUTO 17014G18KT 5SM -RA OVC009 01/01 A3003 RMK AO2 T00100007
Loading
Personal Weather Stations






























Interactive Weather Map New forecast layout! Learn more

10-Day Weather Forecast

Advertisements
Track Severe Weather on mobile